Decoded Metar for LESO (DONOSTI in SPAIN) (IATA:EAS) | Meteo·Mobile Aviation Weather
aviador You're here:

LESO Decoded Metar

DONOSTI in SPAIN
Report Time2019-07-22 16:00:00
UTC Time2019-07-22 16:26:55
Flight Rules vfr VFR
Wind040° at 05 kt
W.Decomp.*RWY 04: 5.0 kt HW 0.1 kt RCW
Visibility9999 m
Phenomena:N/A
Clouds:N/A
Expected CloudBase > 2,400 ft AGL from Temp-Dew spread
CeilingNone
Temp28°C (ISA +13)
Dew Point22°C (70% RH)
Heat Index30.7°C
QNH1017 hPa
Density Alt1,742 ft
Elevation26 ft
Report Wrong Elevation
Raw Report
LESO 221600Z 04005KT 330V080 CAVOK 28/22 Q1017=

Extra information for LESO:More info

Metar Taf Metar & Taf Last 4 Metars F.Rules Stats Wind Profile Meteogram Temp Stats Airport Information Weather charts Add Link Nearby VenuesMetar ALERT Operation Metar Decoded Social comments